Latest Coastal Weather Observations for Cape Wessel

IDD60701

Issued at 1:11 pm CST Monday 2 March 2015 (issued every 10 minutes, with the page automatically refreshed every 10 minutes)

About coastal observations | Map of coastal stations | Coastal observations for NT | Marine services | Other Formats
Station Details ID: 200786 Name: CAPE WESSEL Lat: -11.00 Lon: 136.76 Height: 18.0 m
Data from the previous 72 hours. | See also: Recent months for locations in Northern Territory
Date/Time
CST
Temp

°C
Wind Pressure Rain
since 9am
mm
Weather Cloud Vis
km
Sea
Height
m
Swell
Dir
 
Speed
knots
Gust
knots
hPa Trend Height
m
Period
s
Dir
02/01:00pm 30.7 N 8 10 1004.9 - 0.0 - - - - - - -
02/12:30pm 31.1 N 10 13 1005.3 - 0.0 - - - - - - -
02/12:00pm 31.3 NNW 10 12 1005.5 - 0.0 - - - - - - -
02/11:30am 30.7 N 10 14 1006.0 - 0.0 - - - - - - -
02/11:00am 30.6 N 11 14 1006.2 - 0.0 - - - - - - -
02/10:30am 30.3 N 10 13 1006.5 - 0.0 - - - - - - -
02/10:00am 28.5 NNW 11 13 1006.6 - 0.0 - - - - - - -
02/09:30am 29.4 NW 9 11 1006.7 - 0.0 - - - - - - -
02/09:00am 28.2 NW 10 13 1006.3 - 1.4 - - - - - - -
02/08:30am 27.0 WNW 10 13 1006.2 - 1.4 - - - - - - -
02/08:00am 25.6 WNW 14 18 1006.3 - 1.4 - - - - - - -
02/07:30am 26.7 N 9 11 1005.7 - 1.2 - - - - - - -
02/07:00am 26.1 NNE 9 12 1005.6 - 1.2 - - - - - - -
02/06:30am 25.9 N 9 12 1005.7 - 1.2 - - - - - - -
02/06:00am 27.0 N 13 18 1005.4 - 0.8 - - - - - - -
02/05:30am 27.1 N 9 11 1005.2 - 0.8 - - - - - - -
02/05:00am 26.6 NW 7 9 1004.9 - 0.8 - - - - - - -
02/04:30am 26.4 NW 6 8 1004.4 - 0.8 - - - - - - -
02/04:00am 26.2 NW 5 7 1004.4 - 0.8 - - - - - - -
02/03:30am 25.7 NW 3 4 1004.2 - 0.8 - - - - - - -
02/03:00am 25.7 NW 4 5 1004.4 - 0.8 - - - - - - -
02/02:30am 25.9 NW 3 4 1005.0 - 0.8 - - - - - - -
02/02:00am 26.1 NW 5 6 1005.2 - 0.8 - - - - - - -
02/01:30am 26.2 NW 8 10 1005.6 - 0.8 - - - - - - -
02/01:00am 26.2 NW 9 11 1006.0 - 0.8 - - - - - - -
02/12:30am 26.3 NW 9 11 1006.4 - 0.8 - - - - - - -
02/12:00am 26.0 WNW 8 9 1006.4 - 0.8 - - - - - - -
 
Date/Time
CST
Temp

°C
Wind Pressure Rain
since 9am
mm
Weather Cloud Vis
km
Sea
Height
m
Swell
Dir
 
Speed
knots
Gust
knots
hPa Trend Height
m
Period
s
Dir
01/11:30pm 25.8 WNW 10 13 1006.6 - 0.8 - - - - - - -
01/11:00pm 25.9 WNW 9 11 1006.7 - 0.8 - - - - - - -
01/10:30pm 25.9 WNW 9 12 1006.9 - 0.8 - - - - - - -
01/10:00pm 25.8 W 8 9 1006.4 - 0.8 - - - - - - -
01/09:30pm 25.8 W 11 13 1005.9 - 0.8 - - - - - - -
01/09:00pm 26.4 W 12 14 1005.4 - 0.8 - - - - - - -
01/08:30pm 26.3 W 17 20 1005.2 - 0.8 - - - - - - -
01/08:00pm 26.2 WNW 14 17 1005.1 - 0.8 - - - - - - -
01/07:30pm 26.1 W 14 16 1004.8 - 0.8 - - - - - - -
01/07:00pm 26.1 W 14 17 1004.7 - 0.8 - - - - - - -
01/06:30pm 26.1 WNW 16 19 1004.4 - 0.8 - - - - - - -
01/06:00pm 26.5 WNW 16 20 1004.4 - 0.8 - - - - - - -
01/05:30pm 27.2 WNW 16 21 1004.0 - 0.8 - - - - - - -
01/05:00pm 28.0 WNW 16 20 1003.9 - 0.8 - - - - - - -
01/04:30pm 27.9 NW 19 22 1003.6 - 0.8 - - - - - - -
01/04:00pm 28.0 NW 16 19 1003.8 - 0.8 - - - - - - -
01/03:30pm 29.6 NW 14 17 1004.0 - 0.8 - - - - - - -
01/03:00pm 28.2 NW 13 16 1004.1 - 0.8 - - - - - - -
01/02:30pm 28.4 NW 12 15 1004.4 - 0.8 - - - - - - -
01/02:00pm 28.1 WNW 12 15 1004.6 - 0.6 - - - - - - -
01/01:30pm 27.8 WNW 11 13 1005.0 - 0.6 - - - - - - -
01/01:00pm 27.6 NW 11 15 1005.3 - 0.6 - - - - - - -
01/12:30pm 27.2 NW 11 14 1005.5 - 0.6 - - - - - - -
01/12:00pm 27.0 NW 11 13 1006.2 - 0.4 - - - - - - -
01/11:30am 26.5 NW 12 15 1006.8 - 0.4 - - - - - - -
01/11:00am 26.5 WNW 13 16 1007.4 - 0.4 - - - - - - -
01/10:30am 26.5 W 14 18 1007.3 - 0.0 - - - - - - -
01/10:00am 26.2 W 10 13 1006.8 - 0.0 - - - - - - -
01/09:30am 25.5 WNW 8 10 1006.8 - 0.0 - - - - - - -
01/09:00am 25.1 WNW 9 11 1006.8 - 26.2 - - - - - - -
01/08:30am 23.7 WSW 8 11 1007.1 - 25.8 - - - - - - -
01/08:00am 25.0 SW 10 11 1007.2 - 25.0 - - - - - - -
01/07:30am 25.2 WSW 10 11 1007.1 - 24.2 - - - - - - -
01/07:00am 25.2 WSW 13 17 1006.8 - 22.8 - - - - - - -
01/06:30am 24.5 W 14 18 1006.5 - 21.2 - - - - - - -
01/06:00am 24.0 WNW 11 14 1005.8 - 20.8 - - - - - - -
01/05:30am 24.1 W 13 17 1005.7 - 19.2 - - - - - - -
01/05:06am 25.2 W 15 25 1005.8 - 15.4 - - - - - - -
01/05:00am 25.9 W 10 15 1005.8 - 14.6 - - - - - - -
01/04:30am 25.3 W 10 12 1005.0 - 13.8 - - - - - - -
01/04:00am 24.9 W 11 16 1004.6 - 13.0 - - - - - - -
01/03:30am 25.0 W 13 16 1004.4 - 12.6 - - - - - - -
01/03:00am 25.0 WNW 12 31 1004.8 - 11.0 - - - - - - -
01/02:53am 24.4 W 23 33 1004.7 - 10.8 - - - - - - -
01/02:46am 26.4 W 23 27 1004.4 - 6.2 - - - - - - -
01/02:41am 27.2 NW 18 23 1004.2 - 6.0 - - - - - - -
01/02:30am 26.6 WNW 21 26 1004.4 - 4.6 - - - - - - -
01/02:00am 27.7 W 18 22 1005.1 - 0.2 - - - - - - -
01/01:30am 28.4 W 17 21 1005.5 - 0.2 - - - - - - -
01/01:00am 28.3 W 17 21 1005.6 - 0.2 - - - - - - -
01/12:30am 28.4 W 18 21 1005.9 - 0.2 - - - - - - -
01/12:00am 28.2 WNW 14 16 1006.1 - 0.2 - - - - - - -
 
Date/Time
CST
Temp

°C
Wind Pressure Rain
since 9am
mm
Weather Cloud Vis
km
Sea
Height
m
Swell
Dir
 
Speed
knots
Gust
knots
hPa Trend Height
m
Period
s
Dir
28/11:30pm 28.2 WNW 15 18 1006.9 - 0.2 - - - - - - -
28/11:00pm 28.3 WNW 13 16 1007.1 - 0.2 - - - - - - -
28/10:30pm 28.4 WNW 14 17 1006.8 - 0.2 - - - - - - -
28/10:00pm 28.2 WNW 15 19 1006.2 - 0.2 - - - - - - -
28/09:30pm 28.4 WNW 14 16 1006.1 - 0.2 - - - - - - -
28/09:00pm 28.3 WNW 13 16 1006.0 - 0.2 - - - - - - -
28/08:30pm 28.4 WNW 14 18 1006.1 - 0.2 - - - - - - -
28/08:00pm 28.4 WNW 15 18 1005.7 - 0.2 - - - - - - -
28/07:30pm 28.4 W 16 19 1005.3 - 0.2 - - - - - - -
28/07:00pm 28.6 W 15 17 1005.5 - 0.2 - - - - - - -
28/06:30pm 28.3 WNW 14 18 1005.4 - 0.2 - - - - - - -
28/06:00pm 28.7 W 14 17 1005.0 - 0.2 - - - - - - -
28/05:30pm 28.9 W 15 17 1004.9 - 0.2 - - - - - - -
28/05:00pm 29.2 W 16 19 1004.9 - 0.2 - - - - - - -
28/04:30pm 29.3 W 17 19 1004.6 - 0.2 - - - - - - -
28/04:00pm 29.8 W 17 19 1004.7 - 0.2 - - - - - - -
28/03:30pm 29.8 W 18 21 1004.8 - 0.2 - - - - - - -
28/03:00pm 30.2 W 18 21 1004.7 - 0.2 - - - - - - -
28/02:30pm 30.5 W 17 21 1005.0 - 0.2 - - - - - - -
28/02:00pm 30.6 W 16 20 1005.7 - 0.2 - - - - - - -
28/01:30pm 30.6 W 16 19 1005.8 - 0.2 - - - - - - -
28/01:00pm 31.3 WSW 17 19 1006.2 - 0.2 - - - - - - -
28/12:30pm 30.8 WSW 15 19 1006.6 - 0.2 - - - - - - -
28/12:00pm 31.1 W 15 19 1007.0 - 0.2 - - - - - - -
28/11:30am 30.7 W 16 19 1007.5 - 0.2 - - - - - - -
28/11:00am 30.5 W 17 20 1007.8 - 0.2 - - - - - - -
28/10:30am 31.1 W 16 19 1007.9 - 0.0 - - - - - - -
28/10:00am 29.8 W 19 22 1007.9 - 0.0 - - - - - - -
28/09:30am 29.9 W 19 22 1007.5 - 0.0 - - - - - - -
28/09:00am 29.5 W 18 21 1007.3 - 4.0 - - - - - - -
28/08:30am 29.2 W 16 19 1007.1 - 4.0 - - - - - - -
28/08:00am 28.2 W 17 20 1007.1 - 4.0 - - - - - - -
28/07:30am 27.3 W 19 22 1006.8 - 4.0 - - - - - - -
28/07:00am 28.3 W 17 20 1006.6 - 2.8 - - - - - - -
28/06:30am 28.1 W 19 22 1006.3 - 2.8 - - - - - - -
28/06:00am 28.0 W 19 23 1005.9 - 2.8 - - - - - - -
28/05:30am 27.9 W 20 24 1005.4 - 2.8 - - - - - - -
28/05:00am 27.8 W 19 23 1005.3 - 2.8 - - - - - - -
28/04:30am 27.7 W 20 25 1005.3 - 2.8 - - - - - - -
28/04:00am 27.5 W 19 23 1005.4 - 2.8 - - - - - - -
28/03:30am 27.6 W 21 25 1005.5 - 2.8 - - - - - - -
28/03:00am 27.3 W 19 22 1005.5 - 2.8 - - - - - - -
28/02:30am 26.9 W 20 23 1006.0 - 2.8 - - - - - - -
28/02:00am 26.7 WNW 18 25 1006.2 - 0.2 - - - - - - -
28/01:30am 28.0 WNW 15 19 1006.3 - 0.0 - - - - - - -
28/01:00am 28.1 WNW 14 17 1006.7 - 0.0 - - - - - - -
28/12:30am 28.3 W 17 19 1007.2 - 0.0 - - - - - - -
28/12:00am 28.3 WNW 16 20 1007.4 - 0.0 - - - - - - -
 
Date/Time
CST
Temp

°C
Wind Pressure Rain
since 9am
mm
Weather Cloud Vis
km
Sea
Height
m
Swell
Dir
 
Speed
knots
Gust
knots
hPa Trend Height
m
Period
s
Dir
27/11:30pm 28.5 W 17 19 1008.1 - 0.0 - - - - - - -
27/11:00pm 28.4 W 16 19 1008.5 - 0.0 - - - - - - -
27/10:30pm 28.4 W 17 21 1008.5 - 0.0 - - - - - - -
27/10:00pm 28.3 WNW 16 19 1008.1 - 0.0 - - - - - - -
27/09:30pm 28.1 WNW 16 20 1007.6 - 0.0 - - - - - - -
27/09:00pm 28.1 WNW 16 21 1007.4 - 0.0 - - - - - - -
27/08:30pm 28.0 WNW 16 20 1007.2 - 0.0 - - - - - - -
27/08:00pm 27.9 WNW 15 19 1006.8 - 0.0 - - - - - - -
27/07:30pm 27.7 WNW 13 18 1006.5 - 0.0 - - - - - - -
27/07:00pm 27.7 WNW 14 19 1006.4 - 0.0 - - - - - - -
27/06:30pm 28.0 WNW 15 19 1006.2 - 0.0 - - - - - - -
27/06:00pm 28.3 WNW 16 19 1005.6 - 0.0 - - - - - - -
27/05:30pm 28.9 WNW 14 17 1005.5 - 0.0 - - - - - - -
27/05:00pm 28.6 WNW 16 19 1005.5 - 0.0 - - - - - - -
27/04:30pm 28.3 WNW 16 20 1005.4 - 0.0 - - - - - - -
27/04:00pm 30.6 WNW 19 23 1005.0 - 0.0 - - - - - - -
27/03:30pm 30.8 WNW 15 19 1005.3 - 0.0 - - - - - - -
27/03:00pm 32.7 W 14 16 1005.1 - 0.0 - - - - - - -
27/02:30pm 32.7 W 14 16 1005.3 - 0.0 - - - - - - -
27/02:00pm 32.7 W 14 16 1005.6 - 0.0 - - - - - - -
27/01:30pm 32.9 W 14 16 1006.1 - 0.0 - - - - - - -

Other Formats:

Comma delimited format used in spreadsheet applications
http://www.bom.gov.au/fwo/IDD60701/IDD60701.94147.axf

JavaScript Object Notation format (JSON) in row-major order
http://www.bom.gov.au/fwo/IDD60701/IDD60701.94147.json